Glenrock, Wyoming
Current Conditions -  °F | °C
As of 6:53 PM on Friday 24 Oct 2014 (Local Time) from KDGW Reporting Station
Clear Clear  
Wind Chill: 62°   Ceiling: Unl
Heat Index: 62°   Visibility: 10mi
Dew Point: 20°   Wind: 8mph
Humidity: 20%   Direction: 230°SW
Pressure: 30.1"   Gusts: NA
Location:  42.86°N, 105.87°W
Report Text: KDGW 250053Z AUTO 23007KT 10SM CLR 17/M07 A3010 RMK AO2 SLP161 T01671067
Loading
Personal Weather Stations






























Interactive Weather Map
Tropical Storm Tracking
New forecast layout! Learn more

10-Day Weather Forecast

Advertisements
Track Severe Weather on mobile